Time;durP1;ratioP1;P1;durP2;ratioP2;P2;SDS_P1;SDS_P2;PMS_P1;PMS_P2;Temp;Humidity;BMP_temperature;BMP_pressure;BME280_temperature;BME280_humidity;BME280_pressure;Samples;Min_cycle;Max_cycle;Signal;HPM_P1;HPM_P2
2021/09/02 00:01:56;;;;;;;7.13;4.70;;;;;;;14.96;nan;101458.53;5030220;28;20097;-75
2021/09/02 00:04:22;;;;;;;7.30;5.00;;;;;;;14.95;nan;101451.56;5029055;28;20045;-75
2021/09/02 00:06:47;;;;;;;6.57;4.78;;;;;;;14.85;nan;101449.00;5030262;28;20041;-75
2021/09/02 00:09:13;;;;;;;5.90;4.32;;;;;;;14.82;nan;101449.31;5029876;28;20045;-75
2021/09/02 00:11:38;;;;;;;6.93;4.93;;;;;;;14.79;nan;101444.31;5012605;28;20117;-74
2021/09/02 00:14:03;;;;;;;7.03;4.75;;;;;;;14.68;nan;101450.72;5032681;28;20033;-75
2021/09/02 00:16:28;;;;;;;6.47;4.80;;;;;;;14.63;nan;101440.56;5029324;28;20034;-75
2021/09/02 00:18:54;;;;;;;7.00;5.30;;;;;;;14.57;nan;101438.50;5012090;28;20033;-75
2021/09/02 00:21:19;;;;;;;6.40;4.60;;;;;;;14.54;nan;101428.19;5012615;28;20405;-75
2021/09/02 00:23:44;;;;;;;6.68;4.63;;;;;;;14.54;nan;101430.84;5030259;28;20037;-75
2021/09/02 00:26:10;;;;;;;8.73;4.93;;;;;;;14.52;nan;101435.44;5013000;28;20334;-75
2021/09/02 00:28:35;;;;;;;5.60;4.32;;;;;;;14.50;nan;101432.09;5011804;28;20037;-75
2021/09/02 00:31:00;;;;;;;5.38;3.92;;;;;;;14.42;nan;101432.06;5020609;28;20178;-75
2021/09/02 00:33:26;;;;;;;6.00;4.70;;;;;;;14.32;nan;101426.78;5015127;28;20037;-74
2021/09/02 00:35:51;;;;;;;5.65;4.32;;;;;;;14.27;nan;101430.91;5029992;28;20386;-75
2021/09/02 00:38:16;;;;;;;5.55;4.53;;;;;;;14.21;nan;101427.06;5028640;28;20168;-75
2021/09/02 00:40:42;;;;;;;7.22;4.60;;;;;;;14.17;nan;101436.31;5029561;28;20033;-75
2021/09/02 00:43:07;;;;;;;6.82;4.15;;;;;;;14.09;nan;101431.78;5032351;28;20029;-74
2021/09/02 00:45:33;;;;;;;5.80;4.50;;;;;;;14.01;nan;101434.34;5033884;28;20247;-75
2021/09/02 00:47:58;;;;;;;6.75;4.95;;;;;;;13.96;nan;101426.81;5033456;28;20494;-75
2021/09/02 00:50:24;;;;;;;7.22;5.10;;;;;;;13.90;nan;101429.28;5037337;28;20498;-75
2021/09/02 00:52:50;;;;;;;7.85;4.80;;;;;;;13.82;nan;101430.00;5015071;28;20040;-77
2021/09/02 00:55:15;;;;;;;7.00;4.80;;;;;;;13.78;nan;101429.47;5033521;28;20029;-75
2021/09/02 00:57:41;;;;;;;6.53;5.05;;;;;;;13.75;nan;101435.09;5033096;28;20049;-74
2021/09/02 01:00:16;;;;;;;8.05;5.63;;;;;;;13.81;nan;101428.34;5032168;28;20490;-75
2021/09/02 01:02:43;;;;;;;7.45;5.10;;;;;;;13.89;nan;101440.88;5016048;28;20063;-74
2021/09/02 01:05:09;;;;;;;7.30;5.63;;;;;;;13.96;nan;101436.63;5032851;28;20095;-75
2021/09/02 01:07:35;;;;;;;6.35;5.15;;;;;;;14.01;nan;101440.50;5033108;28;20120;-75
2021/09/02 01:10:03;;;;;;;7.20;5.25;;;;;;;14.10;nan;101443.25;5033444;28;20045;-76
2021/09/02 01:12:35;;;;;;;6.63;5.13;;;;;;;14.14;nan;101439.28;5032342;28;20034;-76
2021/09/02 01:15:05;;;;;;;7.30;5.55;;;;;;;14.08;nan;101446.03;5036873;28;20549;-76
2021/09/02 01:17:31;;;;;;;8.15;5.50;;;;;;;14.04;nan;101439.38;5033424;28;20030;-76
2021/09/02 01:19:57;;;;;;;6.85;4.80;;;;;;;13.98;nan;101434.66;5018249;28;20030;-76
2021/09/02 01:22:30;;;;;;;6.90;5.20;;;;;;;13.85;nan;101428.84;5016442;28;20034;-76
2021/09/02 01:25:01;;;;;;;5.70;4.63;;;;;;;13.78;nan;101423.34;5033555;28;20049;-77
2021/09/02 01:27:28;;;;;;;7.05;5.30;;;;;;;13.65;nan;101415.72;5032873;28;20053;-77
2021/09/02 01:29:57;;;;;;;8.38;5.93;;;;;;;13.57;nan;101415.63;5015652;28;20196;-77
2021/09/02 01:32:29;;;;;;;6.97;5.53;;;;;;;13.47;nan;101420.19;5036220;28;20037;-77
2021/09/02 01:34:56;;;;;;;8.00;5.68;;;;;;;13.38;nan;101420.06;5016148;28;20499;-77
2021/09/02 01:37:22;;;;;;;8.00;5.40;;;;;;;13.40;nan;101419.94;5032798;28;20064;-77
2021/09/02 01:39:49;;;;;;;8.27;6.05;;;;;;;13.31;nan;101412.84;5039649;28;20032;-77
2021/09/02 01:42:14;;;;;;;8.00;5.70;;;;;;;13.20;nan;101418.31;5015377;28;20421;-77
2021/09/02 01:44:40;;;;;;;9.40;5.97;;;;;;;13.13;nan;101408.28;5014067;28;20068;-77
2021/09/02 01:47:20;;;;;;;10.13;5.85;;;;;;;12.99;nan;101416.75;5032780;28;20045;-78
2021/09/02 01:49:46;;;;;;;9.85;5.85;;;;;;;12.92;nan;101419.13;5041255;28;20486;-77
2021/09/02 01:52:11;;;;;;;6.85;5.22;;;;;;;12.91;nan;101414.78;5031683;28;20037;-77
2021/09/02 01:54:37;;;;;;;8.48;6.13;;;;;;;12.91;nan;101416.59;5031277;28;20398;-78
2021/09/02 01:57:05;;;;;;;9.25;5.68;;;;;;;12.91;nan;101421.91;5032476;28;20098;-77
2021/09/02 01:59:31;;;;;;;9.77;6.22;;;;;;;12.82;nan;101415.66;5019017;28;20334;-77
2021/09/02 02:01:56;;;;;;;10.02;6.43;;;;;;;12.79;nan;101410.63;5035125;28;20057;-76
2021/09/02 02:04:21;;;;;;;7.82;5.97;;;;;;;12.78;nan;101416.13;5030623;28;20045;-76
2021/09/02 02:06:46;;;;;;;8.13;6.13;;;;;;;12.75;nan;101411.91;5032802;28;20045;-77
2021/09/02 02:09:12;;;;;;;9.38;6.57;;;;;;;12.74;nan;101412.91;5031299;28;20044;-78
2021/09/02 02:11:37;;;;;;;9.95;6.28;;;;;;;12.77;nan;101407.28;5032142;28;20034;-77
2021/09/02 02:14:02;;;;;;;9.00;6.22;;;;;;;12.83;nan;101409.38;5034292;28;20497;-77
2021/09/02 02:16:27;;;;;;;11.43;6.40;;;;;;;12.94;nan;101413.66;5031355;28;20179;-76
2021/09/02 02:18:53;;;;;;;7.70;5.70;;;;;;;13.04;nan;101403.00;5015194;28;20175;-77
2021/09/02 02:21:18;;;;;;;8.45;6.13;;;;;;;13.08;nan;101413.19;5031835;28;20125;-76
2021/09/02 02:23:43;;;;;;;10.00;6.75;;;;;;;13.15;nan;101411.63;5031056;28;20034;-77
2021/09/02 02:26:09;;;;;;;10.15;6.30;;;;;;;13.23;nan;101412.69;5032645;28;20042;-77
2021/09/02 02:28:34;;;;;;;8.13;5.78;;;;;;;13.27;nan;101411.44;5020318;28;20120;-76
2021/09/02 02:30:59;;;;;;;9.32;5.80;;;;;;;13.31;nan;101404.88;5013437;28;20033;-77
2021/09/02 02:33:24;;;;;;;7.03;5.47;;;;;;;13.33;nan;101408.22;5034934;28;20057;-76
2021/09/02 02:35:50;;;;;;;8.10;5.82;;;;;;;13.38;nan;101406.78;5014010;28;20505;-77
2021/09/02 02:38:15;;;;;;;7.18;5.45;;;;;;;13.41;nan;101396.84;5030670;28;20043;-77
2021/09/02 02:40:40;;;;;;;8.05;6.13;;;;;;;13.44;nan;101404.50;5014231;28;20041;-77
2021/09/02 02:43:06;;;;;;;7.65;5.53;;;;;;;13.50;nan;101398.63;5031470;28;20116;-77
2021/09/02 02:45:31;;;;;;;6.13;4.93;;;;;;;13.50;nan;101399.44;5031125;28;20312;-76
2021/09/02 02:47:56;;;;;;;6.97;5.35;;;;;;;13.50;nan;101399.44;5031563;28;20509;-77
2021/09/02 02:50:21;;;;;;;7.28;5.32;;;;;;;13.48;nan;101401.41;5038464;28;20026;-76
2021/09/02 02:52:47;;;;;;;7.97;5.68;;;;;;;13.50;nan;101402.09;5029328;28;20466;-77
2021/09/02 02:55:12;;;;;;;6.53;5.13;;;;;;;13.49;nan;101400.44;5013568;28;20045;-77
2021/09/02 02:57:37;;;;;;;7.63;5.20;;;;;;;13.47;nan;101399.75;5013698;28;20033;-76
2021/09/02 03:00:04;;;;;;;6.97;5.22;;;;;;;13.45;nan;101399.06;5036469;28;20037;-76
2021/09/02 03:02:30;;;;;;;7.32;4.90;;;;;;;13.42;nan;101399.38;5013352;28;20040;-76
2021/09/02 03:04:55;;;;;;;7.68;5.05;;;;;;;13.37;nan;101394.50;5030494;28;20033;-77
2021/09/02 03:07:20;;;;;;;8.10;6.03;;;;;;;13.32;nan;101398.56;5013104;28;20138;-76
2021/09/02 03:09:45;;;;;;;15.38;5.93;;;;;;;13.22;nan;101400.41;5031897;28;20030;-77
2021/09/02 03:12:11;;;;;;;7.05;5.45;;;;;;;13.15;nan;101395.69;5031826;28;20028;-77
2021/09/02 03:14:36;;;;;;;9.45;6.40;;;;;;;13.07;nan;101400.91;5035296;28;20269;-76
2021/09/02 03:17:02;;;;;;;8.73;6.18;;;;;;;12.99;nan;101399.94;5014307;28;20393;-76
2021/09/02 03:19:27;;;;;;;9.05;6.55;;;;;;;12.88;nan;101395.69;5031014;28;20393;-76
2021/09/02 03:21:52;;;;;;;8.77;6.25;;;;;;;12.85;nan;101398.63;5031024;28;20088;-76
2021/09/02 03:24:17;;;;;;;7.20;6.00;;;;;;;12.85;nan;101399.47;5011728;28;20049;-76
2021/09/02 03:26:43;;;;;;;7.88;5.75;;;;;;;12.87;nan;101394.84;5031064;28;20116;-76
2021/09/02 03:29:08;;;;;;;8.88;5.85;;;;;;;13.01;nan;101403.28;5012827;28;20117;-75
2021/09/02 03:31:33;;;;;;;8.68;5.78;;;;;;;13.17;nan;101398.19;5031715;28;20770;-76
2021/09/02 03:33:59;;;;;;;7.85;5.63;;;;;;;13.25;nan;101400.09;5037789;28;20049;-76
2021/09/02 03:36:24;;;;;;;8.40;5.57;;;;;;;13.32;nan;101394.13;5012732;28;20133;-76
2021/09/02 03:38:49;;;;;;;8.52;6.13;;;;;;;13.41;nan;101397.69;5030502;28;20069;-75
2021/09/02 03:41:15;;;;;;;7.78;5.40;;;;;;;13.40;nan;101401.34;5016622;28;20430;-76
2021/09/02 03:43:40;;;;;;;8.07;5.97;;;;;;;13.45;nan;101396.41;5029908;28;20037;-76
2021/09/02 03:46:05;;;;;;;7.82;5.32;;;;;;;13.41;nan;101399.50;5012181;28;20041;-76
2021/09/02 03:48:31;;;;;;;7.35;5.32;;;;;;;13.47;nan;101402.41;5030488;28;20053;-76
2021/09/02 03:50:56;;;;;;;8.77;5.90;;;;;;;13.53;nan;101400.97;5017761;28;20080;-76
2021/09/02 03:53:21;;;;;;;8.07;5.55;;;;;;;13.48;nan;101398.75;5029640;28;20083;-76
2021/09/02 03:55:47;;;;;;;7.78;5.47;;;;;;;13.48;nan;101403.25;5030357;28;20025;-77
2021/09/02 03:58:12;;;;;;;7.75;5.50;;;;;;;13.48;nan;101401.41;5030438;28;20084;-76
2021/09/02 04:00:37;;;;;;;6.47;5.22;;;;;;;13.47;nan;101404.25;5012660;28;20040;-76
2021/09/02 04:05:30;;;;;;;8.90;5.90;;;;;;;13.50;nan;101395.97;5027196;28;20041;-73
2021/09/02 04:07:56;;;;;;;9.95;6.80;;;;;;;13.47;nan;101390.94;5028408;28;20045;-73
2021/09/02 04:10:21;;;;;;;9.23;6.20;;;;;;;13.47;nan;101396.28;5029623;28;20400;-75
2021/09/02 04:12:46;;;;;;;8.57;5.55;;;;;;;13.46;nan;101390.09;5030861;28;20512;-73
2021/09/02 04:15:11;;;;;;;7.53;5.75;;;;;;;13.55;nan;101393.69;5035980;28;20405;-73
2021/09/02 04:17:37;;;;;;;8.23;5.68;;;;;;;13.55;nan;101404.31;5035363;28;20032;-74
2021/09/02 04:20:03;;;;;;;7.65;5.60;;;;;;;13.53;nan;101396.47;5030784;28;20131;-74
2021/09/02 04:22:28;;;;;;;7.65;5.45;;;;;;;13.46;nan;101391.91;5030400;28;20409;-74
2021/09/02 04:24:53;;;;;;;7.30;5.10;;;;;;;13.43;nan;101389.56;5030311;28;20045;-74
2021/09/02 04:27:19;;;;;;;7.72;5.50;;;;;;;13.44;nan;101394.72;5033510;28;20046;-74
2021/09/02 04:29:44;;;;;;;6.90;5.07;;;;;;;13.38;nan;101388.19;5031370;28;20043;-74
2021/09/02 04:32:10;;;;;;;6.63;4.82;;;;;;;13.33;nan;101390.47;5031201;28;20125;-74
2021/09/02 04:34:39;;;;;;;9.18;5.40;;;;;;;13.26;nan;101385.88;5035229;28;20489;-74
2021/09/02 04:37:05;;;;;;;7.07;5.65;;;;;;;13.34;nan;101389.47;5029349;28;20057;-74
2021/09/02 04:39:31;;;;;;;7.70;5.32;;;;;;;13.29;nan;101385.59;5030458;28;20060;-74
2021/09/02 04:41:56;;;;;;;8.48;6.20;;;;;;;13.23;nan;101386.13;5030560;28;20069;-74
2021/09/02 04:44:21;;;;;;;8.00;5.45;;;;;;;13.17;nan;101398.19;5029737;28;20033;-74
2021/09/02 04:46:47;;;;;;;8.23;5.75;;;;;;;13.10;nan;101394.47;5030442;28;20045;-74
2021/09/02 04:49:12;;;;;;;7.35;5.80;;;;;;;13.04;nan;101398.53;5030586;28;20276;-74
2021/09/02 04:51:37;;;;;;;6.95;5.00;;;;;;;13.01;nan;101396.16;5030501;28;20056;-74
2021/09/02 04:54:02;;;;;;;8.93;5.90;;;;;;;13.01;nan;101396.16;5031222;28;20087;-75
2021/09/02 04:56:28;;;;;;;7.47;6.00;;;;;;;12.98;nan;101399.13;5012339;28;20045;-75
2021/09/02 04:58:53;;;;;;;8.18;5.53;;;;;;;12.91;nan;101398.84;5030393;28;20034;-75
2021/09/02 05:01:19;;;;;;;10.25;6.10;;;;;;;13.02;nan;101402.34;5030467;28;20505;-74
2021/09/02 05:03:44;;;;;;;10.25;6.53;;;;;;;13.04;nan;101397.69;5041850;28;20034;-74
2021/09/02 05:06:09;;;;;;;8.10;5.70;;;;;;;12.97;nan;101408.06;5031146;28;20044;-74
2021/09/02 05:08:35;;;;;;;7.13;5.65;;;;;;;13.00;nan;101407.78;5035002;28;20033;-75
2021/09/02 05:11:00;;;;;;;8.13;5.75;;;;;;;12.98;nan;101417.69;5033687;28;20124;-75
2021/09/02 05:13:25;;;;;;;7.05;5.47;;;;;;;13.06;nan;101422.28;5030810;28;20034;-75
2021/09/02 05:15:51;;;;;;;9.40;6.22;;;;;;;13.10;nan;101418.34;5031093;28;20433;-75
2021/09/02 05:18:16;;;;;;;10.65;5.80;;;;;;;13.10;nan;101421.00;5029300;28;20045;-75
2021/09/02 05:20:42;;;;;;;8.70;5.85;;;;;;;13.25;nan;101421.34;5030417;28;20052;-76
2021/09/02 05:23:07;;;;;;;7.53;5.40;;;;;;;13.37;nan;101423.72;5029505;28;20045;-75
2021/09/02 05:25:32;;;;;;;8.38;5.15;;;;;;;13.52;nan;101413.41;5029246;28;20032;-75
2021/09/02 05:27:58;;;;;;;7.45;5.13;;;;;;;13.71;nan;101416.94;5032518;28;20045;-73
2021/09/02 05:30:23;;;;;;;8.40;5.55;;;;;;;13.93;nan;101432.44;5032524;28;20516;-76
2021/09/02 05:32:48;;;;;;;6.47;4.85;;;;;;;14.12;nan;101431.47;5035907;28;20037;-75
2021/09/02 05:35:15;;;;;;;8.93;5.55;;;;;;;14.32;nan;101439.25;5032636;28;20120;-76
2021/09/02 05:37:40;;;;;;;6.95;4.88;;;;;;;14.53;nan;101444.25;5033204;28;20029;-76
2021/09/02 05:40:07;;;;;;;7.72;5.13;;;;;;;14.77;nan;101438.28;5039002;28;20083;-76
2021/09/02 05:42:33;;;;;;;8.73;5.13;;;;;;;14.99;nan;101437.78;5020082;28;20060;-73
2021/09/02 05:44:58;;;;;;;8.27;5.18;;;;;;;15.27;nan;101433.06;5033306;28;20037;-76
2021/09/02 05:47:24;;;;;;;8.10;5.00;;;;;;;15.65;nan;101436.19;5041464;28;20417;-73
2021/09/02 05:49:49;;;;;;;7.60;5.03;;;;;;;15.74;nan;101434.41;5037324;28;20128;-73
2021/09/02 05:52:16;;;;;;;6.78;4.53;;;;;;;16.09;nan;101435.16;5023919;28;20037;-75
2021/09/02 05:54:41;;;;;;;5.45;4.07;;;;;;;16.47;nan;101432.78;5033289;28;20152;-75
2021/09/02 05:57:06;;;;;;;6.00;4.07;;;;;;;16.85;nan;101443.75;5033961;28;20281;-75
2021/09/02 05:59:32;;;;;;;5.80;3.80;;;;;;;17.35;nan;101437.25;5032985;28;20360;-75
2021/09/02 06:01:57;;;;;;;6.32;3.80;;;;;;;17.66;nan;101433.75;5040837;28;20029;-75
2021/09/02 06:04:23;;;;;;;6.10;3.45;;;;;;;17.88;nan;101435.66;5031577;28;20424;-75
2021/09/02 06:06:48;;;;;;;5.55;4.07;;;;;;;17.89;nan;101439.16;5015074;28;20434;-74
2021/09/02 06:09:13;;;;;;;5.47;3.70;;;;;;;18.03;nan;101444.59;5032602;28;20029;-73
2021/09/02 06:11:39;;;;;;;6.28;3.75;;;;;;;18.22;nan;101439.75;5032741;28;20044;-74
2021/09/02 06:14:04;;;;;;;6.03;4.18;;;;;;;18.25;nan;101440.22;5033012;28;20046;-74
2021/09/02 06:16:30;;;;;;;5.20;3.60;;;;;;;18.30;nan;101433.50;5032288;28;20044;-73
2021/09/02 06:18:55;;;;;;;5.50;3.80;;;;;;;18.35;nan;101436.47;5031539;28;20040;-74
2021/09/02 06:21:21;;;;;;;5.95;4.07;;;;;;;18.71;nan;101439.34;5031572;28;20047;-74
2021/09/02 06:23:46;;;;;;;6.72;4.03;;;;;;;19.10;nan;101440.94;5031349;28;20088;-74
2021/09/02 06:26:12;;;;;;;5.28;3.40;;;;;;;19.23;nan;101438.41;5030708;28;20504;-74
2021/09/02 06:28:37;;;;;;;5.68;3.58;;;;;;;19.43;nan;101441.38;5036744;28;20040;-74
2021/09/02 06:31:03;;;;;;;5.40;3.58;;;;;;;19.94;nan;101445.88;5031995;28;20111;-74
2021/09/02 06:33:28;;;;;;;5.57;3.80;;;;;;;20.02;nan;101432.34;5038067;28;20025;-74
2021/09/02 06:35:54;;;;;;;5.03;3.50;;;;;;;20.22;nan;101445.13;5033387;28;20041;-74
2021/09/02 06:38:19;;;;;;;5.50;3.30;;;;;;;20.47;nan;101438.28;5033033;28;20409;-74
2021/09/02 06:40:44;;;;;;;5.18;3.22;;;;;;;20.78;nan;101443.31;5039915;28;20037;-74
2021/09/02 06:43:10;;;;;;;4.82;3.50;;;;;;;20.87;nan;101432.41;5037982;28;20147;-74
2021/09/02 06:45:35;;;;;;;5.25;3.45;;;;;;;21.27;nan;101433.44;5032362;28;20123;-74
2021/09/02 06:48:00;;;;;;;5.28;3.47;;;;;;;21.71;nan;101440.22;5032237;28;20310;-75
2021/09/02 06:50:26;;;;;;;7.43;4.63;;;;;;;21.63;nan;101435.03;5031185;28;20508;-75
2021/09/02 06:52:52;;;;;;;12.07;5.88;;;;;;;21.85;nan;101436.53;5034430;28;20034;-74
2021/09/02 06:55:17;;;;;;;11.40;5.88;;;;;;;22.08;nan;101442.59;5031103;28;20523;-75
2021/09/02 06:57:43;;;;;;;18.23;8.80;;;;;;;22.34;nan;101441.81;5029060;28;20506;-74
2021/09/02 07:00:10;;;;;;;7.03;4.55;;;;;;;22.94;nan;101441.72;5039344;28;20117;-75
2021/09/02 07:02:35;;;;;;;8.18;5.10;;;;;;;22.43;nan;101440.56;5013513;28;20395;-74
2021/09/02 07:05:01;;;;;;;6.18;3.85;;;;;;;22.37;nan;101438.69;5014337;28;20040;-75
2021/09/02 07:07:26;;;;;;;9.15;4.20;;;;;;;22.85;nan;101435.72;5014570;28;20525;-75
2021/09/02 07:09:52;;;;;;;6.27;4.67;;;;;;;22.56;nan;101451.31;5031417;28;20510;-75
2021/09/02 07:12:17;;;;;;;6.30;3.80;;;;;;;22.17;nan;101439.50;5033433;28;20033;-74
2021/09/02 07:14:43;;;;;;;9.48;4.25;;;;;;;23.04;nan;101444.84;5041671;28;20029;-75
2021/09/02 07:17:08;;;;;;;5.63;3.90;;;;;;;22.54;nan;101449.88;5040965;28;20025;-74
2021/09/02 07:19:33;;;;;;;5.43;3.75;;;;;;;22.54;nan;101441.78;5032694;28;20030;-74
2021/09/02 07:21:59;;;;;;;5.82;4.18;;;;;;;22.99;nan;101437.38;5041901;28;20120;-74
2021/09/02 07:24:24;;;;;;;5.53;3.85;;;;;;;22.90;nan;101428.66;5033555;28;20053;-74
2021/09/02 07:26:50;;;;;;;4.97;3.40;;;;;;;22.90;nan;101435.91;5032832;28;20632;-74
2021/09/02 07:29:15;;;;;;;5.32;3.63;;;;;;;23.04;nan;101429.47;5014901;28;20033;-74
2021/09/02 07:31:41;;;;;;;5.32;3.70;;;;;;;23.36;nan;101440.38;5032279;28;20026;-74
2021/09/02 07:34:07;;;;;;;8.15;3.97;;;;;;;23.42;nan;101434.09;5031272;28;20115;-75
2021/09/02 07:36:32;;;;;;;6.07;4.05;;;;;;;23.62;nan;101435.88;5031778;28;20397;-74
2021/09/02 07:38:58;;;;;;;5.88;4.25;;;;;;;23.95;nan;101441.09;5032100;28;20061;-74
2021/09/02 07:41:23;;;;;;;6.85;4.07;;;;;;;23.55;nan;101444.03;5013995;28;20544;-75
2021/09/02 07:43:48;;;;;;;6.03;3.88;;;;;;;23.77;nan;101439.16;5034876;28;20029;-75
2021/09/02 07:46:14;;;;;;;7.35;4.38;;;;;;;23.98;nan;101437.13;5013386;28;20478;-74
2021/09/02 07:48:41;;;;;;;;;;;;;;;24.32;nan;101447.50;5032532;28;20038;-75
2021/09/02 07:51:07;;;;;;;5.45;3.90;;;;;;;24.44;nan;101450.31;5031847;28;19955;-75
2021/09/02 07:53:32;;;;;;;7.97;4.32;;;;;;;24.68;nan;101454.06;5031447;28;20057;-74
2021/09/02 07:55:58;;;;;;;;;;;;;;;25.27;nan;101456.38;5032125;28;20034;-75
2021/09/02 07:58:23;;;;;;;;;;;;;;;24.94;nan;101457.56;5040141;28;19920;-75
2021/09/02 08:00:48;;;;;;;7.27;4.17;;;;;;;25.14;nan;101449.19;5040719;28;19967;-75
2021/09/02 08:03:14;;;;;;;5.90;4.03;;;;;;;25.34;nan;101457.13;5030897;28;20037;-75
2021/09/02 08:05:39;;;;;;;5.43;4.00;;;;;;;25.71;nan;101459.75;5013893;28;20397;-75
2021/09/02 08:08:05;;;;;;;6.05;3.80;;;;;;;25.81;nan;101460.88;5031593;28;20038;-75
2021/09/02 08:10:30;;;;;;;6.45;4.03;;;;;;;26.20;nan;101463.25;5032162;28;20033;-75
2021/09/02 08:12:56;;;;;;;5.63;4.00;;;;;;;26.17;nan;101467.25;5031445;28;20029;-75
2021/09/02 08:15:23;;;;;;;4.43;3.50;;;;;;;26.02;nan;101467.66;5013497;28;20512;-75
2021/09/02 08:17:49;;;;;;;6.05;4.00;;;;;;;26.23;nan;101465.47;5030706;28;20026;-75
2021/09/02 08:20:16;;;;;;;7.20;3.97;;;;;;;25.91;nan;101456.78;5033400;28;20092;-75
2021/09/02 08:22:42;;;;;;;6.25;4.13;;;;;;;26.14;nan;101469.56;5046340;28;20029;-75
2021/09/02 08:25:09;;;;;;;6.03;3.75;;;;;;;26.14;nan;101462.25;5031797;28;20064;-75
2021/09/02 08:27:35;;;;;;;5.53;3.90;;;;;;;25.91;nan;101454.06;5030425;28;20034;-74
2021/09/02 08:30:01;;;;;;;5.07;3.60;;;;;;;26.30;nan;101463.47;5030242;28;20256;-74
2021/09/02 08:32:26;;;;;;;5.72;4.15;;;;;;;26.66;nan;101467.06;5013537;28;20056;-75
2021/09/02 08:34:51;;;;;;;5.15;3.70;;;;;;;26.75;nan;101471.09;5034839;28;20103;-74
2021/09/02 08:37:16;;;;;;;6.40;4.00;;;;;;;26.85;nan;101468.59;5042346;28;20026;-75
2021/09/02 08:39:42;;;;;;;5.10;3.72;;;;;;;26.81;nan;101470.13;5024387;28;20036;-74
2021/09/02 08:42:08;;;;;;;4.70;3.60;;;;;;;26.87;nan;101461.03;5032834;28;20036;-75
2021/09/02 08:44:34;;;;;;;5.82;3.75;;;;;;;26.67;nan;101460.56;5029838;28;20036;-75
2021/09/02 08:46:59;;;;;;;6.65;4.05;;;;;;;27.06;nan;101460.91;5029238;28;20041;-75
2021/09/02 08:49:25;;;;;;;5.22;3.47;;;;;;;27.05;nan;101461.94;5029675;28;20474;-75
2021/09/02 08:51:51;;;;;;;6.60;3.95;;;;;;;27.47;nan;101456.31;5030216;28;20447;-75
2021/09/02 08:54:20;;;;;;;5.18;3.55;;;;;;;27.40;nan;101455.66;5029665;28;20075;-75
2021/09/02 08:56:46;;;;;;;;;;;;;;;28.03;nan;101460.13;5030986;28;20029;-75
2021/09/02 08:59:11;;;;;;;5.38;3.60;;;;;;;27.79;nan;101450.38;5029478;28;20366;-75
2021/09/02 09:01:37;;;;;;;5.50;3.87;;;;;;;27.74;nan;101446.53;5029434;28;20415;-75
2021/09/02 09:04:10;;;;;;;5.43;3.63;;;;;;;28.46;nan;101450.50;5032012;28;20041;-75
2021/09/02 09:06:36;;;;;;;5.75;3.67;;;;;;;28.22;nan;101449.84;5033548;28;21953;-75
2021/09/02 09:09:10;;;;;;;4.60;3.60;;;;;;;28.08;nan;101449.31;5034378;28;20096;-75
2021/09/02 09:11:35;;;;;;;4.60;3.28;;;;;;;29.01;nan;101459.72;5034749;28;20513;-75
2021/09/02 09:14:10;;;;;;;6.15;4.00;;;;;;;29.12;nan;101458.78;5039758;28;20061;-75
2021/09/02 09:16:50;;;;;;;6.90;3.97;;;;;;;28.88;nan;101452.72;5033853;28;20105;-75
2021/09/02 09:19:35;;;;;;;6.10;3.92;;;;;;;28.85;nan;101450.50;5033708;28;20040;-75
2021/09/02 09:22:02;;;;;;;6.78;3.42;;;;;;;28.66;nan;101455.41;5034856;28;20038;-75
2021/09/02 09:25:00;;;;;;;5.88;3.80;;;;;;;28.68;nan;101460.63;5040730;28;20051;-75
2021/09/02 09:27:37;;;;;;;6.15;4.13;;;;;;;28.27;nan;101463.50;5026281;28;20336;-75
2021/09/02 09:30:23;;;;;;;7.95;5.40;;;;;;;27.68;nan;101457.56;5035526;28;20116;-75
2021/09/02 09:32:54;;;;;;;5.18;3.85;;;;;;;27.50;nan;101461.28;5038373;28;20140;-75
2021/09/02 09:35:26;;;;;;;6.53;3.70;;;;;;;27.22;nan;101445.78;5038821;28;20402;-75
2021/09/02 09:38:02;;;;;;;4.75;3.47;;;;;;;27.06;nan;101450.03;5034807;28;20037;-75
2021/09/02 09:40:29;;;;;;;6.80;4.03;;;;;;;26.86;nan;101440.41;5034403;28;20033;-75
2021/09/02 09:43:05;;;;;;;5.32;3.70;;;;;;;26.58;nan;101432.16;5035448;28;20114;-75
2021/09/02 09:45:39;;;;;;;4.95;3.10;;;;;;;26.40;nan;101431.19;5028061;28;20511;-75
2021/09/02 09:48:17;;;;;;;5.18;3.72;;;;;;;25.79;nan;101425.06;5032946;28;20465;-75
2021/09/02 09:50:44;;;;;;;4.05;3.28;;;;;;;25.24;nan;101427.03;5021362;28;20040;-75
2021/09/02 09:53:26;;;;;;;5.05;3.88;;;;;;;25.87;nan;101421.22;5040361;28;20036;-75
2021/09/02 09:55:55;;;;;;;5.13;3.80;;;;;;;25.39;nan;101425.59;5030052;28;20037;-75
2021/09/02 09:58:22;;;;;;;5.55;3.40;;;;;;;25.21;nan;101423.72;5038339;28;20021;-74
2021/09/02 10:00:49;;;;;;;5.57;3.80;;;;;;;24.96;nan;101422.97;5042083;28;20367;-75
2021/09/02 10:03:15;;;;;;;4.68;3.50;;;;;;;24.72;nan;101424.72;5015037;28;20544;-74
2021/09/02 10:05:41;;;;;;;4.40;3.50;;;;;;;24.67;nan;101422.66;5063175;22;20049;-76
2021/09/02 10:08:07;;;;;;;4.85;3.42;;;;;;;24.71;nan;101428.44;5048982;28;20069;-76
2021/09/02 10:10:33;;;;;;;5.25;3.60;;;;;;;24.65;nan;101419.34;5051506;28;20541;-76
2021/09/02 10:13:00;;;;;;;4.35;3.38;;;;;;;24.15;nan;101413.97;5051226;28;20290;-76
2021/09/02 10:15:26;;;;;;;4.97;3.70;;;;;;;23.96;nan;101415.75;5056252;28;20036;-76
2021/09/02 10:17:52;;;;;;;5.68;3.85;;;;;;;24.04;nan;101417.38;5058392;28;20041;-76
2021/09/02 10:20:24;;;;;;;5.25;3.70;;;;;;;23.84;nan;101412.13;5048791;28;20061;-76
2021/09/02 10:22:54;;;;;;;4.35;3.35;;;;;;;23.64;nan;101404.91;5051405;28;20029;-75
2021/09/02 10:25:34;;;;;;;5.82;3.67;;;;;;;23.60;nan;101405.59;5050542;28;20444;-75
2021/09/02 10:28:11;;;;;;;5.28;3.40;;;;;;;23.50;nan;101393.38;5047555;28;20106;-76
2021/09/02 10:30:40;;;;;;;4.38;3.30;;;;;;;23.53;nan;101395.66;5050486;28;20061;-76
2021/09/02 10:33:31;;;;;;;6.07;3.92;;;;;;;23.68;nan;101398.03;5051088;28;20037;-76
2021/09/02 10:35:56;;;;;;;5.72;3.60;;;;;;;23.85;nan;101398.38;5032847;28;20087;-76
2021/09/02 10:38:51;;;;;;;4.88;3.63;;;;;;;23.91;nan;101394.81;5032066;28;20033;-76
2021/09/02 10:41:35;;;;;;;4.78;3.25;;;;;;;23.98;nan;101385.81;5051009;28;20378;-76
2021/09/02 10:44:01;;;;;;;5.25;3.53;;;;;;;23.97;nan;101381.47;5053343;28;20064;-76
2021/09/02 10:46:39;;;;;;;4.70;3.53;;;;;;;24.25;nan;101381.03;5050169;28;20041;-76
2021/09/02 10:49:12;;;;;;;5.63;3.53;;;;;;;24.28;nan;101380.56;5049689;28;20044;-76
2021/09/02 10:51:40;;;;;;;5.03;3.55;;;;;;;24.28;nan;101376.00;5025960;28;20393;-76
2021/09/02 10:54:08;;;;;;;5.00;3.10;;;;;;;24.16;nan;101372.34;5050949;28;20080;-76
2021/09/02 10:56:57;;;;;;;5.07;3.38;;;;;;;24.45;nan;101375.41;5049970;28;20108;-75
2021/09/02 10:59:43;;;;;;;5.18;3.47;;;;;;;24.29;nan;101380.38;5031843;28;20040;-76
2021/09/02 11:02:16;;;;;;;4.97;3.70;;;;;;;24.46;nan;101380.66;5049812;28;20033;-76
2021/09/02 11:04:41;;;;;;;4.82;3.10;;;;;;;24.45;nan;101378.94;5049969;28;20025;-76
2021/09/02 11:07:07;;;;;;;5.20;3.42;;;;;;;24.51;nan;101359.16;5049579;28;20029;-75
2021/09/02 11:09:35;;;;;;;6.32;3.22;;;;;;;24.22;nan;101367.94;5031487;28;20119;-75
2021/09/02 11:12:02;;;;;;;4.60;3.20;;;;;;;24.05;nan;101362.25;5049989;28;20037;-76
2021/09/02 11:14:28;;;;;;;4.30;3.50;;;;;;;24.17;nan;101368.63;5053044;28;20033;-76
2021/09/02 11:16:53;;;;;;;5.03;3.63;;;;;;;24.39;nan;101363.63;5049901;28;20036;-76
2021/09/02 11:19:32;;;;;;;4.63;3.50;;;;;;;24.31;nan;101366.59;5049569;28;20123;-76
2021/09/02 11:22:05;;;;;;;4.90;3.40;;;;;;;24.19;nan;101357.56;5019740;28;20046;-76
2021/09/02 11:24:40;;;;;;;4.80;3.13;;;;;;;24.31;nan;101353.09;5048945;28;20033;-76
2021/09/02 11:27:06;;;;;;;4.95;3.20;;;;;;;24.48;nan;101345.25;5031185;28;20033;-76
2021/09/02 11:29:31;;;;;;;6.15;3.40;;;;;;;24.72;nan;101352.50;5031329;28;20037;-76
2021/09/02 11:32:14;;;;;;;5.88;4.07;;;;;;;24.56;nan;101348.50;5045444;28;20116;-76
2021/09/02 11:34:41;;;;;;;4.63;3.40;;;;;;;24.38;nan;101334.94;5037091;28;20028;-75
2021/09/02 11:37:08;;;;;;;5.00;3.40;;;;;;;24.41;nan;101337.22;5041325;28;20035;-76
2021/09/02 11:39:37;;;;;;;5.93;3.42;;;;;;;24.40;nan;101340.13;5050827;28;20115;-76
2021/09/02 11:42:10;;;;;;;5.03;3.63;;;;;;;24.34;nan;101334.56;5049680;28;20033;-76
2021/09/02 11:44:38;;;;;;;4.70;3.40;;;;;;;24.41;nan;101336.34;5047696;28;20044;-76